Etusivu
METAR-TAF:

METAR-TAF

Lentoasemat :

Laupheim, Saksa

Leveyspiiri: 48-13N, Pituuspiiri: 009-55E, korkeus merenpinnasta: 538 m

Tämänhetkinen sää

Tämä raportti tehtiin 19 minuuttia sitten, kello 16.20 UTC
Tuuli 8 kn idästä
Lämpötila -3°C
Kosteus 80%
Ilmanpaine 1019 hPa
Näkyvyys 10 km tai enemmän
Pilvistä 1200 ft:n korkeudessa

METAR: ETHL 141620Z 10008KT 9999 OVC012 M03/M06 Q1019 GRN

Aika: 17:39 (16:39 UTC)

Sääennuste

Tämä raportti tehtiin 6 tuntia ja 10 minuuttia sitten, kello 10.29 UTC
Ennuste voimassa 14. päivästä klo 09 UTC - 14. päivään klo 18 UTC
Tuuli 7 kn idästä/koillisesta
Näkyvyys: 1100 m
Pilvistä 1000 ft:n korkeudessa

TAF: ETHL 141029Z 1409/1418 07007KT 9999 NSW OVC010 CANCEL 1100

Säähavainnot ja -ennusteet yli 4000 lentoasemalta (METAR- ja TAF-raportit).

Käytössä olevat sääasemat on merkitty karttaan keltaisilla ja punaisilla pisteillä.

Aseta hiiri pisteen päälle nähdäksesi sääaseman nimen.

Klikkaa sitten nähdäksesi säähavainnot ja -ennusteet.

Kartan vaihtaminen: klikkaa mustalla rastilla varustettuja vihreitä pisteitä, niin voit zoomata sisään; viivalla varustettua vihreää pistettä, niin voit zoomata ulos tai vihreitä nuolia, niin pääset viereisille kartoille.


METAR-TAF: